createdAt,value
2018-08-10T00:01:05.410Z,48.40
2018-08-10T00:03:34.004Z,47.80
2018-08-10T00:06:02.446Z,47.50
2018-08-10T00:08:30.786Z,47.60
2018-08-10T00:10:59.526Z,47.60
2018-08-10T00:13:27.931Z,48.60
2018-08-10T00:15:56.231Z,48.80
2018-08-10T00:18:24.614Z,49.10
2018-08-10T00:20:52.963Z,48.90
2018-08-10T00:23:21.342Z,48.50
2018-08-10T00:25:49.703Z,48.50
2018-08-10T00:28:18.034Z,48.70
2018-08-10T00:30:46.362Z,48.70
2018-08-10T00:33:15.046Z,48.40
2018-08-10T00:35:43.385Z,47.80
2018-08-10T00:38:11.751Z,49.20
2018-08-10T00:40:40.111Z,49.20
2018-08-10T00:43:08.696Z,49.40
2018-08-10T00:45:37.015Z,49.30
2018-08-10T00:48:05.410Z,48.20
2018-08-10T00:50:33.734Z,48.90
2018-08-10T00:53:02.064Z,49.10
2018-08-10T00:55:30.396Z,48.20
2018-08-10T00:57:58.714Z,48.90
2018-08-10T01:00:27.139Z,49.40
2018-08-10T01:02:55.470Z,48.40
2018-08-10T01:05:23.882Z,47.00
2018-08-10T01:07:52.218Z,49.00
2018-08-10T01:10:21.011Z,47.60
2018-08-10T01:12:49.330Z,48.70
2018-08-10T01:15:18.517Z,47.40
2018-08-10T01:17:47.487Z,48.30
2018-08-10T01:20:18.590Z,47.60
2018-08-10T01:22:52.119Z,48.60
2018-08-10T01:25:22.183Z,47.90
2018-08-10T01:27:55.918Z,48.40
2018-08-10T01:30:25.094Z,48.40
2018-08-10T01:32:53.978Z,48.10
2018-08-10T01:35:22.759Z,46.50
2018-08-10T01:37:51.146Z,48.60
2018-08-10T01:40:19.464Z,48.30
2018-08-10T01:42:47.856Z,48.40
2018-08-10T01:45:16.496Z,48.30
2018-08-10T01:47:44.974Z,48.00
2018-08-10T01:50:13.362Z,47.90
2018-08-10T01:52:41.698Z,47.70
2018-08-10T01:55:10.762Z,47.60
2018-08-10T01:57:39.646Z,47.50
2018-08-10T02:00:08.931Z,47.50
2018-08-10T02:02:37.518Z,47.40
2018-08-10T02:05:07.758Z,47.40
2018-08-10T02:07:38.441Z,47.30
2018-08-10T02:10:09.547Z,47.30
2018-08-10T02:12:38.230Z,47.20
2018-08-10T02:15:08.377Z,47.10
2018-08-10T02:17:36.834Z,47.20
2018-08-10T02:20:06.448Z,47.10
2018-08-10T02:22:34.776Z,47.30
2018-08-10T02:25:03.238Z,46.70
2018-08-10T02:27:31.562Z,47.20
2018-08-10T02:29:59.857Z,45.10
2018-08-10T02:32:28.174Z,48.00
2018-08-10T02:34:56.550Z,47.90
2018-08-10T02:37:24.890Z,47.90
2018-08-10T02:39:53.230Z,47.30
2018-08-10T02:42:21.601Z,47.60
2018-08-10T02:44:49.932Z,47.10
2018-08-10T02:47:23.070Z,47.70
2018-08-10T02:49:52.274Z,46.60
2018-08-10T02:52:20.962Z,48.10
2018-08-10T02:54:49.643Z,47.70
2018-08-10T02:57:18.342Z,47.60
2018-08-10T02:59:46.723Z,47.40
2018-08-10T03:02:15.759Z,47.30
2018-08-10T03:04:44.144Z,47.30
2018-08-10T03:07:12.611Z,47.10
2018-08-10T03:09:41.171Z,47.10
2018-08-10T03:12:10.702Z,47.10
2018-08-10T03:14:39.199Z,47.00
2018-08-10T03:17:07.785Z,47.00
2018-08-10T03:19:36.254Z,46.90
2018-08-10T03:22:04.676Z,46.90
2018-08-10T03:24:32.987Z,46.80
2018-08-10T03:27:01.329Z,46.80
2018-08-10T03:29:29.619Z,46.70
2018-08-10T03:31:58.002Z,46.60
2018-08-10T03:34:26.463Z,46.60
2018-08-10T03:36:54.820Z,46.60
2018-08-10T03:39:23.128Z,47.00
2018-08-10T03:41:51.472Z,47.10
2018-08-10T03:44:20.452Z,46.20
2018-08-10T03:46:48.778Z,47.90
2018-08-10T03:49:17.131Z,47.50
2018-08-10T03:51:45.498Z,47.30
2018-08-10T03:54:13.826Z,47.20
2018-08-10T03:56:42.183Z,47.10
2018-08-10T03:59:10.764Z,46.80
2018-08-10T04:01:39.493Z,46.70
2018-08-10T04:04:07.839Z,46.60
2018-08-10T04:06:36.694Z,46.50
2018-08-10T04:09:07.779Z,46.50
2018-08-10T04:11:36.118Z,46.40
2018-08-10T04:14:04.514Z,46.40
2018-08-10T04:16:32.854Z,46.40
2018-08-10T04:19:01.232Z,46.40
2018-08-10T04:21:29.641Z,46.30
2018-08-10T04:23:57.971Z,46.20
2018-08-10T04:26:26.878Z,46.00
2018-08-10T04:28:55.198Z,46.30
2018-08-10T04:31:23.881Z,46.30
2018-08-10T04:33:52.363Z,46.20
2018-08-10T04:36:20.687Z,46.20
2018-08-10T04:38:49.035Z,46.20
2018-08-10T04:41:17.723Z,46.10
2018-08-10T04:43:46.031Z,46.20
2018-08-10T04:46:14.355Z,46.20
2018-08-10T04:48:43.050Z,46.20
2018-08-10T04:51:11.382Z,46.20
2018-08-10T04:53:39.722Z,46.20
2018-08-10T04:56:08.125Z,46.20
2018-08-10T04:58:36.611Z,46.20
2018-08-10T05:01:04.981Z,46.20
2018-08-10T05:03:33.730Z,46.20
2018-08-10T05:06:02.020Z,46.20
2018-08-10T05:08:30.383Z,46.20
2018-08-10T05:10:58.685Z,46.10
2018-08-10T05:13:27.027Z,46.10
2018-08-10T05:15:55.379Z,46.20
2018-08-10T05:18:23.758Z,46.10
2018-08-10T05:20:52.087Z,46.20
2018-08-10T05:23:20.406Z,46.00
2018-08-10T05:25:48.735Z,45.60
2018-08-10T05:28:17.063Z,46.10
2018-08-10T05:30:45.429Z,46.10
2018-08-10T05:33:13.790Z,46.20
2018-08-10T05:35:42.119Z,46.10
2018-08-10T05:38:10.468Z,45.80
2018-08-10T05:40:38.794Z,45.90
2018-08-10T05:43:11.718Z,45.90
2018-08-10T05:45:40.901Z,44.00
2018-08-10T05:48:09.415Z,44.90
2018-08-10T05:50:37.788Z,45.90
2018-08-10T05:53:06.351Z,45.70
2018-08-10T05:55:34.700Z,45.90
2018-08-10T05:58:03.073Z,45.80
2018-08-10T06:00:31.401Z,45.70
2018-08-10T06:02:59.786Z,45.60
2018-08-10T06:05:28.170Z,45.50
2018-08-10T06:07:56.452Z,45.40
2018-08-10T06:10:24.993Z,45.40
2018-08-10T06:12:53.314Z,45.50
2018-08-10T06:15:21.721Z,45.50
2018-08-10T06:17:51.232Z,45.40
2018-08-10T06:20:19.634Z,45.50
2018-08-10T06:22:47.994Z,45.50
2018-08-10T06:25:16.381Z,45.70
2018-08-10T06:27:44.723Z,45.80
2018-08-10T06:30:13.397Z,46.50
2018-08-10T06:32:42.051Z,46.50
2018-08-10T06:35:10.419Z,46.20
2018-08-10T06:37:38.794Z,45.60
2018-08-10T06:40:07.099Z,46.50
2018-08-10T06:42:35.410Z,47.00
2018-08-10T06:45:03.864Z,46.20
2018-08-10T06:47:32.067Z,46.60
2018-08-10T06:50:00.368Z,46.40
2018-08-10T06:52:28.783Z,46.10
2018-08-10T06:54:57.467Z,45.80
2018-08-10T06:57:25.796Z,46.80
2018-08-10T06:59:54.242Z,45.70
2018-08-10T07:02:22.747Z,46.20
2018-08-10T07:04:51.066Z,46.60
2018-08-10T07:07:19.423Z,47.40
2018-08-10T07:09:47.855Z,47.50
2018-08-10T07:12:16.518Z,47.70
2018-08-10T07:14:45.000Z,47.30
2018-08-10T07:17:14.011Z,47.80
2018-08-10T07:19:42.780Z,47.50
2018-08-10T07:22:11.527Z,46.80
2018-08-10T07:24:39.936Z,46.70
2018-08-10T07:27:08.360Z,46.80
2018-08-10T07:29:37.192Z,46.20
2018-08-10T07:32:06.258Z,45.60
2018-08-10T07:34:34.731Z,45.10
2018-08-10T07:37:03.103Z,44.70
2018-08-10T07:39:32.243Z,44.30
2018-08-10T07:42:00.839Z,44.20
2018-08-10T07:44:29.207Z,44.40
2018-08-10T07:46:57.670Z,43.90
2018-08-10T07:49:26.358Z,43.70
2018-08-10T07:51:56.200Z,43.40
2018-08-10T07:54:24.525Z,44.00
2018-08-10T07:56:53.083Z,43.10
2018-08-10T07:59:21.424Z,43.30
2018-08-10T08:01:49.786Z,43.90
2018-08-10T08:04:18.337Z,43.50
2018-08-10T08:07:20.678Z,43.80
2018-08-10T08:09:49.011Z,43.60
2018-08-10T08:12:17.430Z,43.40
2018-08-10T08:14:45.799Z,43.00
2018-08-10T08:17:14.183Z,42.70
2018-08-10T08:19:42.578Z,42.50
2018-08-10T08:22:13.617Z,41.80
2018-08-10T08:24:42.597Z,43.30
2018-08-10T08:27:12.273Z,43.10
2018-08-10T08:29:41.603Z,42.80
2018-08-10T08:32:10.679Z,42.60
2018-08-10T08:34:39.133Z,42.60
2018-08-10T08:37:08.556Z,42.60
2018-08-10T08:40:39.950Z,43.10
2018-08-10T08:43:08.289Z,41.60
2018-08-10T08:46:08.828Z,43.90
2018-08-10T08:48:39.882Z,43.60
2018-08-10T08:51:10.562Z,42.20
2018-08-10T08:53:39.006Z,42.50
2018-08-10T08:56:08.882Z,43.10
2018-08-10T08:58:37.832Z,42.80
2018-08-10T09:01:07.012Z,42.70
2018-08-10T09:03:46.888Z,42.80
2018-08-10T09:06:15.249Z,42.90
2018-08-10T09:08:54.761Z,42.50
2018-08-10T09:11:23.095Z,43.00
2018-08-10T09:14:59.834Z,41.30
2018-08-10T09:17:28.274Z,42.60
2018-08-10T09:19:56.890Z,42.60
2018-08-10T09:22:25.426Z,42.60
2018-08-10T09:24:53.822Z,42.50
2018-08-10T09:27:22.187Z,42.40
2018-08-10T09:29:50.547Z,42.40
2018-08-10T09:32:18.910Z,41.60
2018-08-10T09:34:47.767Z,38.60
2018-08-10T09:37:16.948Z,42.30
2018-08-10T09:39:45.658Z,42.70
2018-08-10T09:42:14.773Z,38.90
2018-08-10T09:44:43.379Z,42.60
2018-08-10T09:47:12.183Z,41.90
2018-08-10T09:49:43.135Z,41.00
2018-08-10T09:52:11.612Z,39.30
2018-08-10T09:55:23.568Z,41.70
2018-08-10T09:57:53.429Z,43.10
2018-08-10T10:00:27.558Z,44.00
2018-08-10T10:03:01.372Z,42.50
2018-08-10T10:05:29.765Z,43.10
2018-08-10T10:07:58.320Z,42.60
2018-08-10T10:10:26.928Z,40.60
2018-08-10T10:12:55.890Z,39.70
2018-08-10T10:15:24.267Z,40.70
2018-08-10T10:17:53.088Z,41.10
2018-08-10T10:20:21.915Z,42.30
2018-08-10T10:22:50.436Z,39.60
2018-08-10T10:25:19.530Z,40.60
2018-08-10T10:27:48.971Z,43.30
2018-08-10T10:30:17.793Z,42.90
2018-08-10T10:32:46.548Z,41.50
2018-08-10T10:35:14.963Z,40.10
2018-08-10T10:37:43.392Z,42.70
2018-08-10T10:40:12.425Z,43.00
2018-08-10T10:42:41.490Z,40.30
2018-08-10T10:45:13.120Z,41.80
2018-08-10T10:47:42.557Z,41.30
2018-08-10T10:50:12.231Z,42.30
2018-08-10T10:52:40.859Z,39.90
2018-08-10T10:55:10.215Z,42.50
2018-08-10T10:57:39.059Z,42.20
2018-08-10T11:00:10.152Z,42.80
2018-08-10T11:02:38.609Z,42.60
2018-08-10T11:05:07.829Z,42.00
2018-08-10T11:07:36.690Z,42.60
2018-08-10T11:10:06.547Z,41.90
2018-08-10T11:12:34.903Z,42.40
2018-08-10T11:15:03.307Z,42.70
2018-08-10T11:17:31.997Z,42.70
2018-08-10T11:20:00.311Z,42.00
2018-08-10T11:22:28.650Z,42.50
2018-08-10T11:24:57.843Z,42.40
2018-08-10T11:27:26.164Z,42.40
2018-08-10T11:29:55.138Z,41.80
2018-08-10T11:32:23.483Z,42.20
2018-08-10T11:34:51.839Z,42.50
2018-08-10T11:37:20.155Z,41.20
2018-08-10T11:39:48.505Z,43.10
2018-08-10T11:42:16.850Z,40.70
2018-08-10T11:44:45.202Z,42.40
2018-08-10T11:47:13.579Z,42.10
2018-08-10T11:49:42.073Z,42.30
2018-08-10T11:52:11.007Z,40.60
2018-08-10T11:54:39.454Z,42.30
2018-08-10T11:57:07.869Z,42.10
2018-08-10T11:59:36.228Z,42.20
2018-08-10T12:02:04.607Z,40.00
2018-08-10T12:04:32.975Z,41.20
2018-08-10T12:07:01.616Z,42.70
2018-08-10T12:09:29.899Z,42.10
2018-08-10T12:11:58.231Z,42.60
2018-08-10T12:14:26.893Z,42.20
2018-08-10T12:16:55.242Z,42.80
2018-08-10T12:19:23.548Z,40.80
2018-08-10T12:21:51.903Z,42.50
2018-08-10T12:24:20.554Z,42.70
2018-08-10T12:26:48.902Z,42.30
2018-08-10T12:29:17.648Z,42.40
2018-08-10T12:31:45.977Z,42.10
2018-08-10T12:34:14.308Z,42.20
2018-08-10T12:36:42.642Z,42.20
2018-08-10T12:39:13.229Z,37.20
2018-08-10T12:41:41.947Z,42.10
2018-08-10T12:44:10.622Z,42.40
2018-08-10T12:46:39.023Z,41.80
2018-08-10T12:49:07.409Z,39.70
2018-08-10T12:51:35.830Z,41.70
2018-08-10T12:54:04.295Z,40.10
2018-08-10T12:56:32.626Z,42.00
2018-08-10T12:59:00.966Z,41.90
2018-08-10T13:01:29.300Z,42.40
2018-08-10T13:03:57.622Z,40.90
2018-08-10T13:06:25.990Z,41.60
2018-08-10T13:08:54.346Z,40.70
2018-08-10T13:11:22.659Z,41.30
2018-08-10T13:13:51.038Z,41.50
2018-08-10T13:16:19.784Z,38.80
2018-08-10T13:18:48.521Z,41.60
2018-08-10T13:21:16.871Z,38.90
2018-08-10T13:23:45.278Z,41.10
2018-08-10T13:26:13.594Z,42.00
2018-08-10T13:28:42.073Z,40.90
2018-08-10T13:31:10.664Z,40.60
2018-08-10T13:33:39.055Z,40.90
2018-08-10T13:36:07.446Z,41.60
2018-08-10T13:38:35.788Z,41.70
2018-08-10T13:41:04.260Z,39.90
2018-08-10T13:43:32.653Z,40.30
2018-08-10T13:46:01.015Z,39.50
2018-08-10T13:48:32.935Z,40.70
2018-08-10T13:51:01.314Z,41.20
2018-08-10T13:53:29.652Z,38.90
2018-08-10T13:55:58.156Z,41.40
2018-08-10T13:58:26.535Z,37.80
2018-08-10T14:00:54.831Z,38.80
2018-08-10T14:03:23.184Z,40.90
2018-08-10T14:05:51.589Z,37.90
2018-08-10T14:08:19.927Z,41.40
2018-08-10T14:10:48.252Z,39.60
2018-08-10T14:13:16.606Z,41.60
2018-08-10T14:15:45.043Z,39.90
2018-08-10T14:18:13.445Z,40.00
2018-08-10T14:20:42.079Z,37.70
2018-08-10T14:23:10.385Z,38.60
2018-08-10T14:25:38.702Z,40.80
2018-08-10T14:28:07.084Z,41.10
2018-08-10T14:30:35.566Z,39.20
2018-08-10T14:33:03.924Z,41.40
2018-08-10T14:35:32.270Z,41.30
2018-08-10T14:38:00.606Z,41.60
2018-08-10T14:40:28.987Z,38.50
2018-08-10T14:42:57.334Z,38.70
2018-08-10T14:45:26.096Z,39.80
2018-08-10T14:47:54.419Z,41.80
2018-08-10T14:50:22.774Z,41.30
2018-08-10T14:52:51.146Z,39.90
2018-08-10T14:55:19.531Z,41.70
2018-08-10T14:57:47.900Z,41.50
2018-08-10T15:00:19.311Z,41.30
2018-08-10T15:02:47.898Z,40.70
2018-08-10T15:05:16.380Z,40.80
2018-08-10T15:07:45.042Z,38.30
2018-08-10T15:10:14.758Z,40.10
2018-08-10T15:12:43.833Z,41.30
2018-08-10T15:15:14.856Z,41.00
2018-08-10T15:17:43.223Z,40.10
2018-08-10T15:20:15.456Z,40.30
2018-08-10T15:22:43.800Z,41.20
2018-08-10T15:25:12.350Z,37.30
2018-08-10T15:27:41.638Z,38.90
2018-08-10T15:30:12.729Z,33.70
2018-08-10T15:32:41.483Z,33.30
2018-08-10T15:35:10.430Z,34.90
2018-08-10T15:37:38.823Z,33.80
2018-08-10T15:40:09.606Z,35.90
2018-08-10T15:42:38.292Z,35.80
2018-08-10T15:45:09.514Z,35.90
2018-08-10T15:47:37.906Z,35.90
2018-08-10T15:50:07.225Z,36.00
2018-08-10T15:52:35.606Z,36.10
2018-08-10T15:55:03.983Z,37.10
2018-08-10T15:57:32.500Z,36.10
2018-08-10T16:00:00.892Z,37.60
2018-08-10T16:02:29.459Z,37.70
2018-08-10T16:04:58.232Z,37.70
2018-08-10T16:07:26.806Z,35.20
2018-08-10T16:09:55.134Z,38.00
2018-08-10T16:12:24.091Z,36.40
2018-08-10T16:14:52.790Z,38.40
2018-08-10T16:17:21.479Z,38.50
2018-08-10T16:19:49.864Z,38.20
2018-08-10T16:22:18.312Z,38.60
2018-08-10T16:24:46.679Z,38.60
2018-08-10T16:27:15.066Z,38.80
2018-08-10T16:29:43.482Z,38.80
2018-08-10T16:32:11.821Z,38.80
2018-08-10T16:34:40.155Z,38.80
2018-08-10T16:37:08.787Z,38.80
2018-08-10T16:39:37.110Z,39.10
2018-08-10T16:42:05.807Z,39.10
2018-08-10T16:44:34.218Z,39.10
2018-08-10T16:47:02.666Z,39.10
2018-08-10T16:49:31.046Z,39.20
2018-08-10T16:51:59.422Z,39.40
2018-08-10T16:54:27.764Z,39.20
2018-08-10T16:56:56.157Z,39.20
2018-08-10T16:59:24.531Z,39.30
2018-08-10T17:01:52.907Z,38.60
2018-08-10T17:04:21.226Z,38.50
2018-08-10T17:06:49.509Z,39.10
2018-08-10T17:09:17.887Z,39.10
2018-08-10T17:11:46.263Z,39.00
2018-08-10T17:14:14.631Z,38.70
2018-08-10T17:16:42.959Z,35.80
2018-08-10T17:19:11.330Z,38.80
2018-08-10T17:21:39.668Z,39.00
2018-08-10T17:24:08.032Z,39.10
2018-08-10T17:26:36.383Z,39.60
2018-08-10T17:29:04.723Z,38.90
2018-08-10T17:31:33.038Z,39.30
2018-08-10T17:34:01.391Z,39.40
2018-08-10T17:36:30.039Z,39.40
2018-08-10T17:38:58.366Z,39.40
2018-08-10T17:41:26.743Z,39.40
2018-08-10T17:43:55.679Z,39.40
2018-08-10T17:46:23.990Z,39.00
2018-08-10T17:48:52.333Z,38.90
2018-08-10T17:51:20.635Z,38.10
2018-08-10T17:53:48.954Z,38.80
2018-08-10T17:56:17.329Z,39.30
2018-08-10T17:58:45.665Z,39.90
2018-08-10T18:01:14.003Z,39.30
2018-08-10T18:03:42.386Z,38.10
2018-08-10T18:06:10.706Z,40.00
2018-08-10T18:08:39.066Z,40.00
2018-08-10T18:11:07.510Z,40.00
2018-08-10T18:13:35.870Z,39.90
2018-08-10T18:16:04.720Z,40.10
2018-08-10T18:18:33.083Z,39.80
2018-08-10T18:21:01.473Z,40.20
2018-08-10T18:23:30.039Z,40.30
2018-08-10T18:25:58.443Z,40.30
2018-08-10T18:28:26.763Z,40.40
2018-08-10T18:30:55.130Z,40.60
2018-08-10T18:33:23.563Z,40.40
2018-08-10T18:35:51.947Z,40.50
2018-08-10T18:38:20.285Z,40.40
2018-08-10T18:40:48.677Z,40.40
2018-08-10T18:43:17.458Z,40.50
2018-08-10T18:45:45.855Z,40.40
2018-08-10T18:48:14.219Z,40.50
2018-08-10T18:50:42.694Z,40.50
2018-08-10T18:53:11.006Z,41.20
2018-08-10T18:55:39.572Z,40.60
2018-08-10T18:58:07.965Z,40.60
2018-08-10T19:00:36.996Z,40.70
2018-08-10T19:03:05.686Z,40.70
2018-08-10T19:05:34.839Z,40.70
2018-08-10T19:08:03.176Z,40.80
2018-08-10T19:10:31.542Z,41.20
2018-08-10T19:13:00.183Z,40.80
2018-08-10T19:15:28.698Z,40.80
2018-08-10T19:17:57.034Z,40.90
2018-08-10T19:20:25.426Z,41.00
2018-08-10T19:22:53.794Z,41.10
2018-08-10T19:25:22.163Z,41.00
2018-08-10T19:27:50.554Z,41.10
2018-08-10T19:30:21.961Z,41.00
2018-08-10T19:32:50.979Z,41.10
2018-08-10T19:35:19.549Z,41.20
2018-08-10T19:37:48.219Z,41.20
2018-08-10T19:40:18.190Z,41.30
2018-08-10T19:42:46.874Z,41.30
2018-08-10T19:45:16.127Z,42.00
2018-08-10T19:47:45.069Z,41.40
2018-08-10T19:50:15.071Z,41.50
2018-08-10T19:52:44.194Z,41.50
2018-08-10T19:55:14.141Z,41.50
2018-08-10T19:57:43.042Z,41.60
2018-08-10T20:00:13.586Z,41.50
2018-08-10T20:02:42.194Z,41.50
2018-08-10T20:05:11.179Z,41.50
2018-08-10T20:07:39.698Z,41.60
2018-08-10T20:10:09.493Z,41.60
2018-08-10T20:12:38.191Z,41.60
2018-08-10T20:15:09.806Z,41.80
2018-08-10T20:17:38.443Z,41.70
2018-08-10T20:20:08.279Z,41.70
2018-08-10T20:22:37.002Z,41.70
2018-08-10T20:25:06.768Z,41.70
2018-08-10T20:27:35.414Z,41.70
2018-08-10T20:30:04.863Z,41.70
2018-08-10T20:32:33.990Z,41.70
2018-08-10T20:35:02.773Z,41.80
2018-08-10T20:37:31.454Z,41.80
2018-08-10T20:39:59.891Z,42.50
2018-08-10T20:42:28.670Z,41.80
2018-08-10T20:44:57.422Z,41.80
2018-08-10T20:47:25.806Z,41.90
2018-08-10T20:49:54.209Z,41.90
2018-08-10T20:52:22.553Z,41.80
2018-08-10T20:54:50.850Z,41.90
2018-08-10T20:57:19.691Z,41.90
2018-08-10T20:59:48.062Z,41.90
2018-08-10T21:02:16.447Z,41.90
2018-08-10T21:04:44.782Z,41.90
2018-08-10T21:07:13.218Z,42.00
2018-08-10T21:09:41.602Z,42.00
2018-08-10T21:12:09.948Z,42.00
2018-08-10T21:14:38.912Z,42.60
2018-08-10T21:17:07.250Z,42.10
2018-08-10T21:19:35.575Z,42.10
2018-08-10T21:22:03.959Z,42.10
2018-08-10T21:24:32.396Z,42.20
2018-08-10T21:27:01.675Z,42.20
2018-08-10T21:29:30.107Z,42.20
2018-08-10T21:31:58.453Z,42.30
2018-08-10T21:34:26.840Z,42.90
2018-08-10T21:36:55.179Z,42.30
2018-08-10T21:39:23.623Z,42.40
2018-08-10T21:41:51.935Z,42.50
2018-08-10T21:44:20.278Z,42.50
2018-08-10T21:46:48.659Z,42.50
2018-08-10T21:49:16.990Z,42.60
2018-08-10T21:51:45.365Z,42.60
2018-08-10T21:54:13.803Z,42.70
2018-08-10T21:56:42.379Z,42.60
2018-08-10T21:59:10.755Z,43.30
2018-08-10T22:01:39.602Z,42.70
2018-08-10T22:04:07.987Z,42.70
2018-08-10T22:06:36.319Z,42.80
2018-08-10T22:09:06.411Z,42.80
2018-08-10T22:11:34.747Z,42.80
2018-08-10T22:14:08.542Z,42.90
2018-08-10T22:16:42.376Z,42.90
2018-08-10T22:19:13.502Z,43.00
2018-08-10T22:21:43.300Z,43.00
2018-08-10T22:24:11.951Z,43.10
2018-08-10T22:26:40.387Z,43.10
2018-08-10T22:29:08.966Z,43.10
2018-08-10T22:31:37.348Z,43.20
2018-08-10T22:34:05.990Z,43.10
2018-08-10T22:36:34.394Z,43.20
2018-08-10T22:39:02.923Z,43.20
2018-08-10T22:41:31.563Z,43.20
2018-08-10T22:43:59.958Z,43.20
2018-08-10T22:46:28.321Z,43.30
2018-08-10T22:48:56.666Z,43.30
2018-08-10T22:51:25.362Z,43.30
2018-08-10T22:53:53.686Z,43.30
2018-08-10T22:56:22.022Z,43.40
2018-08-10T22:58:50.671Z,43.50
2018-08-10T23:01:19.218Z,43.40
2018-08-10T23:03:47.593Z,43.40
2018-08-10T23:06:15.948Z,43.50
2018-08-10T23:08:44.308Z,43.40
2018-08-10T23:11:12.834Z,43.50
2018-08-10T23:13:41.210Z,43.50
2018-08-10T23:16:09.703Z,44.20
2018-08-10T23:18:38.054Z,43.70
2018-08-10T23:21:06.595Z,44.30
2018-08-10T23:23:34.926Z,43.60
2018-08-10T23:26:03.288Z,43.60
2018-08-10T23:28:31.656Z,43.70
2018-08-10T23:30:59.955Z,43.70
2018-08-10T23:33:28.314Z,43.70
2018-08-10T23:35:57.143Z,44.40
2018-08-10T23:38:25.497Z,43.80
2018-08-10T23:40:59.404Z,43.80
2018-08-10T23:43:27.950Z,43.90
2018-08-10T23:45:56.217Z,43.80
2018-08-10T23:48:24.502Z,43.80
2018-08-10T23:50:52.788Z,43.80
2018-08-10T23:53:21.068Z,43.90
2018-08-10T23:55:49.373Z,43.90
2018-08-10T23:58:17.755Z,43.90
